createdAt,value
2018-11-22T00:02:56.287Z,7.87
2018-11-22T00:26:36.314Z,11.71
2018-11-22T00:50:16.327Z,11.27
2018-11-22T04:46:56.439Z,14.33
2018-11-22T05:10:36.472Z,21.85
2018-11-22T05:34:16.499Z,18.1
2018-11-22T08:43:36.601Z,24.35
2018-11-22T08:49:31.569Z,27.61
2018-11-22T08:55:26.582Z,26.21
2018-11-22T09:01:21.574Z,25.78
2018-11-22T09:07:16.624Z,25.53
2018-11-22T09:13:11.576Z,17.21
2018-11-22T09:19:06.591Z,18.18
2018-11-22T09:25:01.591Z,11.17
2018-11-22T09:30:56.660Z,13.01
2018-11-22T09:36:51.607Z,13.39
2018-11-22T09:42:46.630Z,12.93
2018-11-22T09:48:41.817Z,8.87
2018-11-22T09:54:36.627Z,6.13
2018-11-22T10:00:31.627Z,7.04
2018-11-22T10:06:26.607Z,8.17
2018-11-22T10:12:21.722Z,9.91
2018-11-22T10:18:16.623Z,12.98
2018-11-22T10:24:11.649Z,11.93
2018-11-22T10:30:06.691Z,15.93
2018-11-22T10:36:01.636Z,12.18
2018-11-22T10:41:56.633Z,12.42
2018-11-22T10:47:51.686Z,14.9
2018-11-22T10:53:46.662Z,12.2
2018-11-22T10:59:41.655Z,14.69
2018-11-22T11:05:40.842Z,16.31
2018-11-22T11:11:31.715Z,15.83
2018-11-22T11:17:26.699Z,15.43
2018-11-22T11:23:21.664Z,14.64
2018-11-22T11:29:16.672Z,15.48
2018-11-22T11:35:11.682Z,16
2018-11-22T11:41:06.665Z,15.21
2018-11-22T11:47:01.727Z,16.34
2018-11-22T11:52:56.688Z,14.24
2018-11-22T11:58:51.686Z,17.34
2018-11-22T12:04:46.729Z,18.85
2018-11-22T12:10:41.742Z,15.19
2018-11-22T12:16:36.743Z,13.84
2018-11-22T12:22:31.732Z,14.84
2018-11-22T12:28:26.733Z,14.49
2018-11-22T12:34:21.763Z,11.54
2018-11-22T12:40:16.705Z,10.63
2018-11-22T12:46:11.721Z,10.05
2018-11-22T12:52:06.761Z,9.5
2018-11-22T12:58:01.726Z,8.62
2018-11-22T13:03:56.729Z,10.24
2018-11-22T13:09:51.710Z,8.83
2018-11-22T13:15:46.750Z,6.27
2018-11-22T13:21:41.776Z,7.28
2018-11-22T13:27:36.802Z,7.36
2018-11-22T13:33:31.767Z,7.41
2018-11-22T13:39:26.780Z,8.78
2018-11-22T13:45:21.744Z,10.33
2018-11-22T13:51:16.775Z,9.92
2018-11-22T13:57:11.787Z,10.09
2018-11-22T14:03:06.804Z,10.93
2018-11-22T14:09:01.766Z,9.76
2018-11-22T14:14:56.765Z,9.2
2018-11-22T14:20:51.780Z,10.15
2018-11-22T14:26:46.804Z,10.12
2018-11-22T14:32:41.812Z,11.39
2018-11-22T14:38:36.789Z,11.5
2018-11-22T14:44:31.865Z,10.47
2018-11-22T14:50:26.782Z,10.42
2018-11-22T14:56:21.791Z,10.41
2018-11-22T15:02:16.843Z,11.11
2018-11-22T15:08:11.828Z,11.46
2018-11-22T15:14:06.885Z,10.1
2018-11-22T15:20:01.844Z,9.45
2018-11-22T15:25:56.831Z,8.21
2018-11-22T15:31:51.807Z,7.52
2018-11-22T15:37:46.830Z,7.76
2018-11-22T15:43:41.807Z,6.77
2018-11-22T15:49:36.857Z,6.19
2018-11-22T15:55:31.835Z,6.4
2018-11-22T16:01:26.834Z,6.65
2018-11-22T16:07:21.859Z,6.5
2018-11-22T16:13:16.883Z,5.63
2018-11-22T16:19:11.829Z,5.47
2018-11-22T16:25:06.860Z,5.21
2018-11-22T16:31:01.924Z,4.71
2018-11-22T16:36:56.851Z,4.13
2018-11-22T16:42:51.889Z,4.73
2018-11-22T16:48:46.931Z,3.78
2018-11-22T16:54:41.873Z,3.82
2018-11-22T17:00:36.876Z,4.42
2018-11-22T17:06:31.953Z,3.85
2018-11-22T17:12:26.908Z,3.7
2018-11-22T17:18:21.884Z,4.24
2018-11-22T17:24:16.861Z,3.52
2018-11-22T17:30:11.889Z,3.8
2018-11-22T17:36:06.896Z,3.47
2018-11-22T17:42:01.890Z,3.7
2018-11-22T17:47:56.901Z,4.16
2018-11-22T17:53:51.894Z,4.01
2018-11-22T17:59:46.900Z,4.11
2018-11-22T18:05:41.898Z,4.29
2018-11-22T18:11:36.916Z,4.58
2018-11-22T18:17:31.955Z,4.49
2018-11-22T18:23:26.961Z,4.77
2018-11-22T18:29:21.919Z,4.95
2018-11-22T18:35:16.920Z,5.38
2018-11-22T18:41:11.930Z,6.81
2018-11-22T18:47:06.933Z,7.29
2018-11-22T18:53:01.944Z,7.74
2018-11-22T18:58:56.943Z,8.45
2018-11-22T19:04:51.943Z,9.37
2018-11-22T19:10:46.993Z,10.44
2018-11-22T19:16:41.941Z,10.13
2018-11-22T19:22:36.942Z,10.78
2018-11-22T19:28:31.940Z,11.55
2018-11-22T19:34:26.958Z,12.49
2018-11-22T19:40:21.949Z,13.76
2018-11-22T19:46:16.954Z,12.87
2018-11-22T19:52:11.998Z,12.49
2018-11-22T19:58:06.990Z,12.02
2018-11-22T20:04:02.001Z,14.07
2018-11-22T20:09:57.038Z,15.02
2018-11-22T20:15:52.009Z,13.34
2018-11-22T20:21:47.014Z,16.81
2018-11-22T20:27:42.011Z,20.64
2018-11-22T20:33:37.035Z,22.57
2018-11-22T20:39:31.985Z,19.91
2018-11-22T20:45:27.020Z,20.13
2018-11-22T20:51:22.000Z,17.05
2018-11-22T20:57:17.090Z,15.3
2018-11-22T21:03:12.032Z,15.86
2018-11-22T21:09:07.016Z,15.57
2018-11-22T21:15:02.024Z,13.96
2018-11-22T21:20:57.032Z,13.62
2018-11-22T21:26:52.050Z,13.97
2018-11-22T21:32:47.025Z,14.11
2018-11-22T21:38:42.044Z,13.99
2018-11-22T21:44:37.024Z,16.41
2018-11-22T21:50:32.042Z,14.97
2018-11-22T21:56:27.039Z,15.27
2018-11-22T22:02:22.119Z,14.24
2018-11-22T22:08:17.048Z,13.99
2018-11-22T22:14:12.102Z,12.76
2018-11-22T22:20:07.101Z,13.42
2018-11-22T22:26:02.059Z,13.27
2018-11-22T22:31:57.070Z,12.61
2018-11-22T22:37:52.094Z,12.25
2018-11-22T22:43:47.095Z,12.19
2018-11-22T22:49:42.079Z,15.14
2018-11-22T22:55:37.115Z,13.01
2018-11-22T23:01:32.076Z,12.1
2018-11-22T23:07:27.069Z,14.51
2018-11-22T23:13:22.150Z,14.23
2018-11-22T23:19:17.100Z,13.14
2018-11-22T23:25:12.090Z,12.28
2018-11-22T23:31:07.104Z,12.43
2018-11-22T23:37:02.107Z,14
2018-11-22T23:42:57.099Z,12.53
2018-11-22T23:48:52.089Z,12.41
2018-11-22T23:54:47.180Z,12.69
